Hlavní strana
METAR-TAF:

METAR-TAF

Letiště :

Peking, Čína

Letiště Peking

zeměpisná šířka: 39-56N, zeměpisná délka: 116-17E, výška: 55 m

Aktuální stav počasí

Zpráva byla vytvořena před 27 minutami, v 16:00 UTC
Jihojihovýchodní vítr 4 kt
Teplota 17°C
Vlhkost vzduchu 59%
Tlak 1011 hPa
Viditelnost 10 km a více
Žádná oblačnost pod 1500 m, nevyskytují se cumulonimby.

METAR: ZBAA 251600Z 15002MPS CAVOK 17/09 Q1011 NOSIG

Čas: 00:27 (16:27 UTC)

Předpověď počasí

Zpráva byla vytvořena před 7 hodinami a 7 minutami, v 09:20 UTC
Předpověď platná od 25 v 12 UTC do 26 v 12 UTC
Severní vítr 8 kt
Viditelnost 10 km a více
Žádná oblačnost pod 1500 m, nevyskytují se cumulonimby.

TAF: ZBAA 250920Z 2512/2612 36004MPS CAVOK TX26/2607Z TN10/2521Z

Stav a předpovědi počasí z více než 4 000 letišť (zprávy METAR a TAF).

Červené a žluté tečky na mapě představují dostupné meteorologické stanice.

Když kurzor umístíte na tečku, zobrazí se název stanice.

Pak kliknutím zobrazíte stav a předpověď počasí.

Chcete-li změnit mapu, kliknutím na zelené tlačítko se znaménkem +mapu přiblížíte, kliknutím na zelené tlačítko se znaménkem – mapu oddálíte a kliknutím na zelené šipky přejdete na sousední mapy.


METAR-TAF: